sensor_id;sensor_type;location;lat;lon;timestamp;temperature;humidity
40085;DHT22;25786;51.504;7.344;2023-05-07T00:01:58;14.70;90.90
40085;DHT22;25786;51.504;7.344;2023-05-07T00:04:24;14.70;90.80
40085;DHT22;25786;51.504;7.344;2023-05-07T00:06:49;14.70;90.70
40085;DHT22;25786;51.504;7.344;2023-05-07T00:09:15;14.60;90.90
40085;DHT22;25786;51.504;7.344;2023-05-07T00:11:41;14.70;90.90
40085;DHT22;25786;51.504;7.344;2023-05-07T00:14:07;14.70;90.90
40085;DHT22;25786;51.504;7.344;2023-05-07T00:16:32;14.70;90.80
40085;DHT22;25786;51.504;7.344;2023-05-07T00:18:58;14.70;91.00
40085;DHT22;25786;51.504;7.344;2023-05-07T00:21:23;14.70;91.00
40085;DHT22;25786;51.504;7.344;2023-05-07T00:23:52;14.70;91.00
40085;DHT22;25786;51.504;7.344;2023-05-07T00:26:17;14.70;91.10
40085;DHT22;25786;51.504;7.344;2023-05-07T00:28:43;14.80;91.00
40085;DHT22;25786;51.504;7.344;2023-05-07T00:31:08;14.80;91.00
40085;DHT22;25786;51.504;7.344;2023-05-07T00:33:34;14.80;90.90
40085;DHT22;25786;51.504;7.344;2023-05-07T00:36:00;14.80;90.90
40085;DHT22;25786;51.504;7.344;2023-05-07T00:38:27;14.80;90.60
40085;DHT22;25786;51.504;7.344;2023-05-07T00:40:52;14.80;90.70
40085;DHT22;25786;51.504;7.344;2023-05-07T00:43:18;14.80;90.80
40085;DHT22;25786;51.504;7.344;2023-05-07T00:45:43;14.80;90.80
40085;DHT22;25786;51.504;7.344;2023-05-07T00:48:09;14.80;90.70
40085;DHT22;25786;51.504;7.344;2023-05-07T00:50:34;14.80;90.80
40085;DHT22;25786;51.504;7.344;2023-05-07T00:53:00;14.80;90.80
40085;DHT22;25786;51.504;7.344;2023-05-07T00:55:25;14.80;90.70
40085;DHT22;25786;51.504;7.344;2023-05-07T00:57:51;14.70;90.60
40085;DHT22;25786;51.504;7.344;2023-05-07T01:00:17;14.70;90.70
40085;DHT22;25786;51.504;7.344;2023-05-07T01:02:43;14.70;90.70
40085;DHT22;25786;51.504;7.344;2023-05-07T01:05:09;14.60;90.70
40085;DHT22;25786;51.504;7.344;2023-05-07T01:07:37;14.50;90.50
40085;DHT22;25786;51.504;7.344;2023-05-07T01:10:04;14.50;90.60
40085;DHT22;25786;51.504;7.344;2023-05-07T01:12:30;14.40;90.60
40085;DHT22;25786;51.504;7.344;2023-05-07T01:14:56;14.30;90.60
40085;DHT22;25786;51.504;7.344;2023-05-07T01:17:22;14.30;90.80
40085;DHT22;25786;51.504;7.344;2023-05-07T01:19:48;14.40;90.90
40085;DHT22;25786;51.504;7.344;2023-05-07T01:22:14;14.40;91.00
40085;DHT22;25786;51.504;7.344;2023-05-07T01:24:41;14.40;90.70
40085;DHT22;25786;51.504;7.344;2023-05-07T01:27:06;14.40;90.80
40085;DHT22;25786;51.504;7.344;2023-05-07T01:29:32;14.30;90.90
40085;DHT22;25786;51.504;7.344;2023-05-07T01:31:58;14.40;91.00
40085;DHT22;25786;51.504;7.344;2023-05-07T01:34:24;14.30;91.10
40085;DHT22;25786;51.504;7.344;2023-05-07T01:36:51;14.40;91.20
40085;DHT22;25786;51.504;7.344;2023-05-07T01:39:17;14.50;90.90
40085;DHT22;25786;51.504;7.344;2023-05-07T01:41:43;14.50;90.90
40085;DHT22;25786;51.504;7.344;2023-05-07T01:44:08;14.50;91.00
40085;DHT22;25786;51.504;7.344;2023-05-07T01:46:35;14.40;91.00
40085;DHT22;25786;51.504;7.344;2023-05-07T01:49:00;14.40;91.00
40085;DHT22;25786;51.504;7.344;2023-05-07T01:51:26;14.40;91.20
40085;DHT22;25786;51.504;7.344;2023-05-07T01:53:52;14.40;91.20
40085;DHT22;25786;51.504;7.344;2023-05-07T01:56:18;14.40;91.10
40085;DHT22;25786;51.504;7.344;2023-05-07T01:58:47;14.40;91.10
40085;DHT22;25786;51.504;7.344;2023-05-07T02:01:13;14.40;91.10
40085;DHT22;25786;51.504;7.344;2023-05-07T02:03:38;14.40;91.20
40085;DHT22;25786;51.504;7.344;2023-05-07T02:06:04;14.40;91.30
40085;DHT22;25786;51.504;7.344;2023-05-07T02:08:29;14.40;91.30
40085;DHT22;25786;51.504;7.344;2023-05-07T02:10:56;14.40;91.30
40085;DHT22;25786;51.504;7.344;2023-05-07T02:13:21;14.40;91.30
40085;DHT22;25786;51.504;7.344;2023-05-07T02:15:48;14.50;91.10
40085;DHT22;25786;51.504;7.344;2023-05-07T02:18:16;14.50;91.10
40085;DHT22;25786;51.504;7.344;2023-05-07T02:20:41;14.50;91.10
40085;DHT22;25786;51.504;7.344;2023-05-07T02:23:07;14.50;91.00
40085;DHT22;25786;51.504;7.344;2023-05-07T02:25:32;14.30;91.00
40085;DHT22;25786;51.504;7.344;2023-05-07T02:27:58;14.30;91.10
40085;DHT22;25786;51.504;7.344;2023-05-07T02:30:24;14.30;91.20
40085;DHT22;25786;51.504;7.344;2023-05-07T02:32:50;14.30;91.10
40085;DHT22;25786;51.504;7.344;2023-05-07T02:35:16;14.30;91.10
40085;DHT22;25786;51.504;7.344;2023-05-07T02:37:41;14.30;91.10
40085;DHT22;25786;51.504;7.344;2023-05-07T02:40:07;14.30;91.20
40085;DHT22;25786;51.504;7.344;2023-05-07T02:42:32;14.30;91.10
40085;DHT22;25786;51.504;7.344;2023-05-07T02:44:58;14.30;91.20
40085;DHT22;25786;51.504;7.344;2023-05-07T02:47:24;14.30;91.30
40085;DHT22;25786;51.504;7.344;2023-05-07T02:49:52;14.30;91.20
40085;DHT22;25786;51.504;7.344;2023-05-07T02:52:18;14.30;91.30
40085;DHT22;25786;51.504;7.344;2023-05-07T02:54:43;14.30;91.40
40085;DHT22;25786;51.504;7.344;2023-05-07T02:57:09;14.20;91.40
40085;DHT22;25786;51.504;7.344;2023-05-07T02:59:34;14.20;91.40
40085;DHT22;25786;51.504;7.344;2023-05-07T03:02:00;14.20;91.20
40085;DHT22;25786;51.504;7.344;2023-05-07T03:04:25;14.20;91.30
40085;DHT22;25786;51.504;7.344;2023-05-07T03:06:51;14.20;91.20
40085;DHT22;25786;51.504;7.344;2023-05-07T03:09:16;14.20;91.20
40085;DHT22;25786;51.504;7.344;2023-05-07T03:11:42;14.20;91.40
40085;DHT22;25786;51.504;7.344;2023-05-07T03:14:07;14.10;91.30
40085;DHT22;25786;51.504;7.344;2023-05-07T03:16:33;14.20;90.90
40085;DHT22;25786;51.504;7.344;2023-05-07T03:18:58;14.10;91.00
40085;DHT22;25786;51.504;7.344;2023-05-07T03:21:24;14.00;91.10
40085;DHT22;25786;51.504;7.344;2023-05-07T03:23:51;14.00;91.40
40085;DHT22;25786;51.504;7.344;2023-05-07T03:26:17;14.00;91.40
40085;DHT22;25786;51.504;7.344;2023-05-07T03:28:42;14.00;91.40
40085;DHT22;25786;51.504;7.344;2023-05-07T03:31:08;14.00;91.60
40085;DHT22;25786;51.504;7.344;2023-05-07T03:33:33;14.00;91.50
40085;DHT22;25786;51.504;7.344;2023-05-07T03:35:59;14.00;91.50
40085;DHT22;25786;51.504;7.344;2023-05-07T03:38:25;14.00;91.50
40085;DHT22;25786;51.504;7.344;2023-05-07T03:40:50;14.00;91.60
40085;DHT22;25786;51.504;7.344;2023-05-07T03:43:16;14.00;91.60
40085;DHT22;25786;51.504;7.344;2023-05-07T03:45:41;14.10;91.50
40085;DHT22;25786;51.504;7.344;2023-05-07T03:48:07;14.10;91.30
40085;DHT22;25786;51.504;7.344;2023-05-07T03:50:32;14.10;91.20
40085;DHT22;25786;51.504;7.344;2023-05-07T03:52:58;14.00;91.40
40085;DHT22;25786;51.504;7.344;2023-05-07T03:55:23;14.00;91.50
40085;DHT22;25786;51.504;7.344;2023-05-07T03:57:49;14.10;91.40
40085;DHT22;25786;51.504;7.344;2023-05-07T04:00:15;14.00;91.60
40085;DHT22;25786;51.504;7.344;2023-05-07T04:02:40;14.00;91.30
40085;DHT22;25786;51.504;7.344;2023-05-07T04:05:06;14.10;91.30
40085;DHT22;25786;51.504;7.344;2023-05-07T04:07:31;14.10;91.40
40085;DHT22;25786;51.504;7.344;2023-05-07T04:09:57;14.10;91.40
40085;DHT22;25786;51.504;7.344;2023-05-07T04:12:23;14.00;91.50
40085;DHT22;25786;51.504;7.344;2023-05-07T04:14:48;14.10;91.60
40085;DHT22;25786;51.504;7.344;2023-05-07T04:17:13;14.00;91.50
40085;DHT22;25786;51.504;7.344;2023-05-07T04:19:39;14.10;91.50
40085;DHT22;25786;51.504;7.344;2023-05-07T04:22:05;14.00;91.60
40085;DHT22;25786;51.504;7.344;2023-05-07T04:24:33;14.00;91.50
40085;DHT22;25786;51.504;7.344;2023-05-07T04:26:58;14.10;91.60
40085;DHT22;25786;51.504;7.344;2023-05-07T04:29:24;14.10;91.50
40085;DHT22;25786;51.504;7.344;2023-05-07T04:31:50;14.20;91.10
40085;DHT22;25786;51.504;7.344;2023-05-07T04:34:15;14.30;90.50
40085;DHT22;25786;51.504;7.344;2023-05-07T04:36:41;14.20;90.70
40085;DHT22;25786;51.504;7.344;2023-05-07T04:39:07;14.10;90.80
40085;DHT22;25786;51.504;7.344;2023-05-07T04:41:35;14.10;91.00
40085;DHT22;25786;51.504;7.344;2023-05-07T04:44:01;14.10;91.20
40085;DHT22;25786;51.504;7.344;2023-05-07T04:46:29;14.10;91.10
40085;DHT22;25786;51.504;7.344;2023-05-07T04:48:54;14.00;91.20
40085;DHT22;25786;51.504;7.344;2023-05-07T04:51:20;14.10;91.10
40085;DHT22;25786;51.504;7.344;2023-05-07T04:53:45;14.00;91.10
40085;DHT22;25786;51.504;7.344;2023-05-07T04:56:11;14.10;91.20
40085;DHT22;25786;51.504;7.344;2023-05-07T04:58:36;14.10;91.20
40085;DHT22;25786;51.504;7.344;2023-05-07T05:01:02;14.10;91.20
40085;DHT22;25786;51.504;7.344;2023-05-07T05:03:27;14.00;91.10
40085;DHT22;25786;51.504;7.344;2023-05-07T05:05:53;14.10;91.20
40085;DHT22;25786;51.504;7.344;2023-05-07T05:08:19;14.10;91.20
40085;DHT22;25786;51.504;7.344;2023-05-07T05:10:44;14.10;91.20
40085;DHT22;25786;51.504;7.344;2023-05-07T05:13:09;14.10;91.20
40085;DHT22;25786;51.504;7.344;2023-05-07T05:15:38;14.10;91.20
40085;DHT22;25786;51.504;7.344;2023-05-07T05:18:03;14.30;91.20
40085;DHT22;25786;51.504;7.344;2023-05-07T05:20:29;14.30;91.10
40085;DHT22;25786;51.504;7.344;2023-05-07T05:22:54;14.30;91.00
40085;DHT22;25786;51.504;7.344;2023-05-07T05:25:20;14.40;90.90
40085;DHT22;25786;51.504;7.344;2023-05-07T05:27:45;14.70;90.50
40085;DHT22;25786;51.504;7.344;2023-05-07T05:30:11;14.80;90.20
40085;DHT22;25786;51.504;7.344;2023-05-07T05:32:37;15.00;90.10
40085;DHT22;25786;51.504;7.344;2023-05-07T05:35:02;15.20;89.80
40085;DHT22;25786;51.504;7.344;2023-05-07T05:37:28;15.40;89.40
40085;DHT22;25786;51.504;7.344;2023-05-07T05:39:55;15.80;88.70
40085;DHT22;25786;51.504;7.344;2023-05-07T05:42:21;16.00;87.50
40085;DHT22;25786;51.504;7.344;2023-05-07T05:44:46;16.10;87.00
40085;DHT22;25786;51.504;7.344;2023-05-07T05:47:12;16.20;86.00
40085;DHT22;25786;51.504;7.344;2023-05-07T05:49:37;16.30;86.10
40085;DHT22;25786;51.504;7.344;2023-05-07T05:52:03;16.10;85.40
40085;DHT22;25786;51.504;7.344;2023-05-07T05:54:28;16.00;85.50
40085;DHT22;25786;51.504;7.344;2023-05-07T05:56:54;15.70;86.10
40085;DHT22;25786;51.504;7.344;2023-05-07T05:59:19;15.40;87.10
40085;DHT22;25786;51.504;7.344;2023-05-07T06:01:45;15.40;87.90
40085;DHT22;25786;51.504;7.344;2023-05-07T06:04:10;15.40;88.00
40085;DHT22;25786;51.504;7.344;2023-05-07T06:06:36;15.60;87.90
40085;DHT22;25786;51.504;7.344;2023-05-07T06:09:01;15.50;88.00
40085;DHT22;25786;51.504;7.344;2023-05-07T06:11:27;15.60;87.70
40085;DHT22;25786;51.504;7.344;2023-05-07T06:13:52;15.80;87.00
40085;DHT22;25786;51.504;7.344;2023-05-07T06:16:17;16.00;86.60
40085;DHT22;25786;51.504;7.344;2023-05-07T06:18:43;16.00;86.00
40085;DHT22;25786;51.504;7.344;2023-05-07T06:21:10;15.80;86.30
40085;DHT22;25786;51.504;7.344;2023-05-07T06:23:35;15.80;86.90
40085;DHT22;25786;51.504;7.344;2023-05-07T06:26:01;15.60;86.90
40085;DHT22;25786;51.504;7.344;2023-05-07T06:28:27;15.60;87.60
40085;DHT22;25786;51.504;7.344;2023-05-07T06:30:52;15.70;88.20
40085;DHT22;25786;51.504;7.344;2023-05-07T06:33:18;15.70;87.90
40085;DHT22;25786;51.504;7.344;2023-05-07T06:35:44;15.70;87.70
40085;DHT22;25786;51.504;7.344;2023-05-07T06:38:10;15.70;87.80
40085;DHT22;25786;51.504;7.344;2023-05-07T06:40:37;15.70;87.80
40085;DHT22;25786;51.504;7.344;2023-05-07T06:43:02;15.80;87.90
40085;DHT22;25786;51.504;7.344;2023-05-07T06:45:28;15.80;87.40
40085;DHT22;25786;51.504;7.344;2023-05-07T06:47:53;16.00;87.70
40085;DHT22;25786;51.504;7.344;2023-05-07T06:50:19;16.00;87.40
40085;DHT22;25786;51.504;7.344;2023-05-07T06:52:44;16.00;87.30
40085;DHT22;25786;51.504;7.344;2023-05-07T06:55:10;16.00;87.20
40085;DHT22;25786;51.504;7.344;2023-05-07T06:57:36;16.10;87.00
40085;DHT22;25786;51.504;7.344;2023-05-07T07:00:01;16.00;86.70
40085;DHT22;25786;51.504;7.344;2023-05-07T07:02:27;16.10;86.70
40085;DHT22;25786;51.504;7.344;2023-05-07T07:04:53;16.00;86.70
40085;DHT22;25786;51.504;7.344;2023-05-07T07:07:18;16.10;86.60
40085;DHT22;25786;51.504;7.344;2023-05-07T07:09:43;16.30;86.80
40085;DHT22;25786;51.504;7.344;2023-05-07T07:12:09;16.40;86.20
40085;DHT22;25786;51.504;7.344;2023-05-07T07:14:34;16.50;85.60
40085;DHT22;25786;51.504;7.344;2023-05-07T07:17:00;16.30;85.20
40085;DHT22;25786;51.504;7.344;2023-05-07T07:19:25;16.30;85.80
40085;DHT22;25786;51.504;7.344;2023-05-07T07:21:51;16.60;84.60
40085;DHT22;25786;51.504;7.344;2023-05-07T07:24:17;16.70;84.00
40085;DHT22;25786;51.504;7.344;2023-05-07T07:26:46;16.80;83.40
40085;DHT22;25786;51.504;7.344;2023-05-07T07:29:11;16.80;83.80
40085;DHT22;25786;51.504;7.344;2023-05-07T07:31:37;16.70;83.70
40085;DHT22;25786;51.504;7.344;2023-05-07T07:34:02;16.70;83.60
40085;DHT22;25786;51.504;7.344;2023-05-07T07:36:28;16.60;83.70
40085;DHT22;25786;51.504;7.344;2023-05-07T07:38:53;16.60;83.90
40085;DHT22;25786;51.504;7.344;2023-05-07T07:41:19;16.50;84.60
40085;DHT22;25786;51.504;7.344;2023-05-07T07:43:44;16.60;85.00
40085;DHT22;25786;51.504;7.344;2023-05-07T07:46:12;16.60;84.50
40085;DHT22;25786;51.504;7.344;2023-05-07T07:48:37;16.70;84.50
40085;DHT22;25786;51.504;7.344;2023-05-07T07:51:03;16.60;84.30
40085;DHT22;25786;51.504;7.344;2023-05-07T07:53:28;16.60;84.70
40085;DHT22;25786;51.504;7.344;2023-05-07T07:55:54;16.70;84.60
40085;DHT22;25786;51.504;7.344;2023-05-07T07:58:19;16.70;84.80
40085;DHT22;25786;51.504;7.344;2023-05-07T08:00:44;17.10;83.30
40085;DHT22;25786;51.504;7.344;2023-05-07T08:03:10;17.20;82.60
40085;DHT22;25786;51.504;7.344;2023-05-07T08:05:35;17.30;82.20
40085;DHT22;25786;51.504;7.344;2023-05-07T08:08:01;17.30;82.50
40085;DHT22;25786;51.504;7.344;2023-05-07T08:10:27;17.20;83.00
40085;DHT22;25786;51.504;7.344;2023-05-07T08:12:52;17.20;82.70
40085;DHT22;25786;51.504;7.344;2023-05-07T08:15:18;17.30;83.00
40085;DHT22;25786;51.504;7.344;2023-05-07T08:17:43;17.60;81.10
40085;DHT22;25786;51.504;7.344;2023-05-07T08:20:15;17.60;81.30
40085;DHT22;25786;51.504;7.344;2023-05-07T08:22:40;17.60;81.20
40085;DHT22;25786;51.504;7.344;2023-05-07T08:25:06;17.60;81.50
40085;DHT22;25786;51.504;7.344;2023-05-07T08:27:31;17.50;81.50
40085;DHT22;25786;51.504;7.344;2023-05-07T08:29:57;17.60;82.00
40085;DHT22;25786;51.504;7.344;2023-05-07T08:32:22;17.80;80.70
40085;DHT22;25786;51.504;7.344;2023-05-07T08:34:48;17.60;80.90
40085;DHT22;25786;51.504;7.344;2023-05-07T08:37:13;17.50;82.10
40085;DHT22;25786;51.504;7.344;2023-05-07T08:39:39;17.50;83.20
40085;DHT22;25786;51.504;7.344;2023-05-07T08:42:04;17.60;82.80
40085;DHT22;25786;51.504;7.344;2023-05-07T08:44:33;17.80;82.40
40085;DHT22;25786;51.504;7.344;2023-05-07T08:47:00;18.00;81.90
40085;DHT22;25786;51.504;7.344;2023-05-07T08:49:27;18.20;80.30
40085;DHT22;25786;51.504;7.344;2023-05-07T08:51:52;18.00;80.60
40085;DHT22;25786;51.504;7.344;2023-05-07T08:54:18;17.80;81.40
40085;DHT22;25786;51.504;7.344;2023-05-07T08:56:44;17.80;81.80
40085;DHT22;25786;51.504;7.344;2023-05-07T08:59:10;17.70;82.40
40085;DHT22;25786;51.504;7.344;2023-05-07T09:01:36;18.00;80.70
40085;DHT22;25786;51.504;7.344;2023-05-07T09:04:01;18.10;80.30
40085;DHT22;25786;51.504;7.344;2023-05-07T09:06:27;18.10;81.30
40085;DHT22;25786;51.504;7.344;2023-05-07T09:08:53;18.20;81.00
40085;DHT22;25786;51.504;7.344;2023-05-07T09:11:20;18.30;81.10
40085;DHT22;25786;51.504;7.344;2023-05-07T09:13:46;18.40;80.00
40085;DHT22;25786;51.504;7.344;2023-05-07T09:16:12;18.30;80.10
40085;DHT22;25786;51.504;7.344;2023-05-07T09:18:41;18.50;78.20
40085;DHT22;25786;51.504;7.344;2023-05-07T09:21:11;18.30;78.90
40085;DHT22;25786;51.504;7.344;2023-05-07T09:23:37;18.30;79.50
40085;DHT22;25786;51.504;7.344;2023-05-07T09:26:02;18.20;79.60
40085;DHT22;25786;51.504;7.344;2023-05-07T09:28:29;18.20;80.10
40085;DHT22;25786;51.504;7.344;2023-05-07T09:30:55;18.20;79.70
40085;DHT22;25786;51.504;7.344;2023-05-07T09:33:20;18.20;80.30
40085;DHT22;25786;51.504;7.344;2023-05-07T09:35:46;18.40;78.80
40085;DHT22;25786;51.504;7.344;2023-05-07T09:38:12;18.20;79.60
40085;DHT22;25786;51.504;7.344;2023-05-07T09:40:37;18.20;79.40
40085;DHT22;25786;51.504;7.344;2023-05-07T09:43:09;18.40;78.40
40085;DHT22;25786;51.504;7.344;2023-05-07T09:45:36;18.40;79.40
40085;DHT22;25786;51.504;7.344;2023-05-07T09:48:05;18.60;77.70
40085;DHT22;25786;51.504;7.344;2023-05-07T09:50:32;18.70;77.70
40085;DHT22;25786;51.504;7.344;2023-05-07T09:53:02;18.60;78.10
40085;DHT22;25786;51.504;7.344;2023-05-07T09:55:31;18.60;78.50
40085;DHT22;25786;51.504;7.344;2023-05-07T09:57:57;18.60;76.00
40085;DHT22;25786;51.504;7.344;2023-05-07T10:00:22;18.70;77.90
40085;DHT22;25786;51.504;7.344;2023-05-07T10:02:48;18.60;77.20
40085;DHT22;25786;51.504;7.344;2023-05-07T10:05:15;18.70;78.00
40085;DHT22;25786;51.504;7.344;2023-05-07T10:07:40;18.80;77.40
40085;DHT22;25786;51.504;7.344;2023-05-07T10:10:06;18.80;77.70
40085;DHT22;25786;51.504;7.344;2023-05-07T10:12:32;18.90;78.60
40085;DHT22;25786;51.504;7.344;2023-05-07T10:15:07;19.00;77.80
40085;DHT22;25786;51.504;7.344;2023-05-07T10:17:36;19.10;77.10
40085;DHT22;25786;51.504;7.344;2023-05-07T10:20:02;19.50;77.70
40085;DHT22;25786;51.504;7.344;2023-05-07T10:22:28;19.50;76.00
40085;DHT22;25786;51.504;7.344;2023-05-07T10:24:56;19.60;75.00
40085;DHT22;25786;51.504;7.344;2023-05-07T10:27:23;19.60;74.50
40085;DHT22;25786;51.504;7.344;2023-05-07T10:34:44;19.90;73.50
40085;DHT22;25786;51.504;7.344;2023-05-07T10:37:10;19.80;72.30
40085;DHT22;25786;51.504;7.344;2023-05-07T10:43:03;19.70;74.60
40085;DHT22;25786;51.504;7.344;2023-05-07T10:45:35;19.90;72.10
40085;DHT22;25786;51.504;7.344;2023-05-07T10:48:20;20.10;69.70
40085;DHT22;25786;51.504;7.344;2023-05-07T10:56:36;19.80;70.20
40085;DHT22;25786;51.504;7.344;2023-05-07T11:04:18;19.90;73.20
40085;DHT22;25786;51.504;7.344;2023-05-07T11:07:09;19.80;71.70
40085;DHT22;25786;51.504;7.344;2023-05-07T11:15:04;19.90;73.00
40085;DHT22;25786;51.504;7.344;2023-05-07T11:17:31;19.90;72.80
40085;DHT22;25786;51.504;7.344;2023-05-07T11:20:00;20.00;73.70
40085;DHT22;25786;51.504;7.344;2023-05-07T11:25:03;20.20;71.70
40085;DHT22;25786;51.504;7.344;2023-05-07T11:27:37;20.20;72.50
40085;DHT22;25786;51.504;7.344;2023-05-07T11:30:06;20.40;72.60
40085;DHT22;25786;51.504;7.344;2023-05-07T11:32:32;20.20;71.20
40085;DHT22;25786;51.504;7.344;2023-05-07T11:34:59;20.30;70.00
40085;DHT22;25786;51.504;7.344;2023-05-07T11:37:25;20.50;66.80
40085;DHT22;25786;51.504;7.344;2023-05-07T11:40:02;20.60;68.70
40085;DHT22;25786;51.504;7.344;2023-05-07T11:42:28;20.40;71.40
40085;DHT22;25786;51.504;7.344;2023-05-07T11:44:53;20.30;71.80
40085;DHT22;25786;51.504;7.344;2023-05-07T11:47:19;20.30;71.70
40085;DHT22;25786;51.504;7.344;2023-05-07T11:49:48;20.20;72.50
40085;DHT22;25786;51.504;7.344;2023-05-07T11:52:15;20.20;72.30
40085;DHT22;25786;51.504;7.344;2023-05-07T11:54:40;20.20;72.50
40085;DHT22;25786;51.504;7.344;2023-05-07T11:57:06;20.50;71.60
40085;DHT22;25786;51.504;7.344;2023-05-07T11:59:41;20.40;70.80
40085;DHT22;25786;51.504;7.344;2023-05-07T12:02:09;20.50;70.60
40085;DHT22;25786;51.504;7.344;2023-05-07T12:04:35;20.70;69.90
40085;DHT22;25786;51.504;7.344;2023-05-07T12:07:21;20.80;68.70
40085;DHT22;25786;51.504;7.344;2023-05-07T12:09:49;20.70;70.20
40085;DHT22;25786;51.504;7.344;2023-05-07T12:12:21;20.70;70.40
40085;DHT22;25786;51.504;7.344;2023-05-07T12:14:58;20.60;70.40
40085;DHT22;25786;51.504;7.344;2023-05-07T12:17:27;20.60;70.70
40085;DHT22;25786;51.504;7.344;2023-05-07T12:28:36;20.80;70.20
40085;DHT22;25786;51.504;7.344;2023-05-07T12:31:02;20.80;70.90
40085;DHT22;25786;51.504;7.344;2023-05-07T12:33:28;20.70;70.70
40085;DHT22;25786;51.504;7.344;2023-05-07T12:35:54;20.80;67.80
40085;DHT22;25786;51.504;7.344;2023-05-07T12:38:20;21.10;68.20
40085;DHT22;25786;51.504;7.344;2023-05-07T12:40:47;21.00;67.10
40085;DHT22;25786;51.504;7.344;2023-05-07T12:43:24;20.90;68.40
40085;DHT22;25786;51.504;7.344;2023-05-07T12:45:50;21.00;68.50
40085;DHT22;25786;51.504;7.344;2023-05-07T12:48:17;20.90;69.30
40085;DHT22;25786;51.504;7.344;2023-05-07T12:50:44;21.10;69.00
40085;DHT22;25786;51.504;7.344;2023-05-07T12:53:10;21.10;69.50
40085;DHT22;25786;51.504;7.344;2023-05-07T12:55:43;21.10;68.90
40085;DHT22;25786;51.504;7.344;2023-05-07T12:58:19;21.10;67.80
40085;DHT22;25786;51.504;7.344;2023-05-07T13:00:46;21.00;67.30
40085;DHT22;25786;51.504;7.344;2023-05-07T13:03:15;20.80;68.00
40085;DHT22;25786;51.504;7.344;2023-05-07T13:05:46;20.70;68.70
40085;DHT22;25786;51.504;7.344;2023-05-07T13:08:11;20.70;69.70
40085;DHT22;25786;51.504;7.344;2023-05-07T13:10:37;20.60;69.70
40085;DHT22;25786;51.504;7.344;2023-05-07T13:13:02;20.60;69.60
40085;DHT22;25786;51.504;7.344;2023-05-07T13:15:28;20.70;68.90
40085;DHT22;25786;51.504;7.344;2023-05-07T13:17:53;20.80;67.00
40085;DHT22;25786;51.504;7.344;2023-05-07T13:20:19;20.70;68.00
40085;DHT22;25786;51.504;7.344;2023-05-07T13:22:44;20.50;68.80
40085;DHT22;25786;51.504;7.344;2023-05-07T13:25:10;20.40;68.50
40085;DHT22;25786;51.504;7.344;2023-05-07T13:27:36;20.20;69.60
40085;DHT22;25786;51.504;7.344;2023-05-07T13:30:02;20.20;71.10
40085;DHT22;25786;51.504;7.344;2023-05-07T13:32:28;20.10;71.20
40085;DHT22;25786;51.504;7.344;2023-05-07T13:34:53;20.00;70.90
40085;DHT22;25786;51.504;7.344;2023-05-07T13:37:24;20.00;69.90
40085;DHT22;25786;51.504;7.344;2023-05-07T13:39:52;20.00;71.30
40085;DHT22;25786;51.504;7.344;2023-05-07T13:42:18;20.00;70.00
40085;DHT22;25786;51.504;7.344;2023-05-07T13:44:43;20.00;69.80
40085;DHT22;25786;51.504;7.344;2023-05-07T13:47:09;20.00;70.70
40085;DHT22;25786;51.504;7.344;2023-05-07T13:49:34;19.90;71.50
40085;DHT22;25786;51.504;7.344;2023-05-07T13:52:00;19.90;71.10
40085;DHT22;25786;51.504;7.344;2023-05-07T13:54:25;19.90;71.10
40085;DHT22;25786;51.504;7.344;2023-05-07T13:56:51;19.90;71.00
40085;DHT22;25786;51.504;7.344;2023-05-07T13:59:16;19.90;71.80
40085;DHT22;25786;51.504;7.344;2023-05-07T14:01:42;19.80;71.80
40085;DHT22;25786;51.504;7.344;2023-05-07T14:04:07;19.90;72.40
40085;DHT22;25786;51.504;7.344;2023-05-07T14:06:33;19.80;71.40
40085;DHT22;25786;51.504;7.344;2023-05-07T14:08:58;19.80;71.70
40085;DHT22;25786;51.504;7.344;2023-05-07T14:11:25;19.70;70.30
40085;DHT22;25786;51.504;7.344;2023-05-07T14:13:50;19.70;71.40
40085;DHT22;25786;51.504;7.344;2023-05-07T14:16:16;19.60;71.90
40085;DHT22;25786;51.504;7.344;2023-05-07T14:18:41;19.60;71.50
40085;DHT22;25786;51.504;7.344;2023-05-07T14:21:07;19.50;71.90
40085;DHT22;25786;51.504;7.344;2023-05-07T14:23:34;19.50;71.10
40085;DHT22;25786;51.504;7.344;2023-05-07T14:26:00;19.50;71.40
40085;DHT22;25786;51.504;7.344;2023-05-07T14:28:25;19.50;71.00
40085;DHT22;25786;51.504;7.344;2023-05-07T14:30:51;19.50;70.30
40085;DHT22;25786;51.504;7.344;2023-05-07T14:33:17;19.50;72.20
40085;DHT22;25786;51.504;7.344;2023-05-07T14:35:42;19.50;72.50
40085;DHT22;25786;51.504;7.344;2023-05-07T14:38:13;19.60;71.80
40085;DHT22;25786;51.504;7.344;2023-05-07T14:40:38;19.60;71.90
40085;DHT22;25786;51.504;7.344;2023-05-07T14:43:04;19.60;72.20
40085;DHT22;25786;51.504;7.344;2023-05-07T14:45:29;19.70;73.20
40085;DHT22;25786;51.504;7.344;2023-05-07T14:47:57;19.70;72.10
40085;DHT22;25786;51.504;7.344;2023-05-07T14:50:23;19.80;71.80
40085;DHT22;25786;51.504;7.344;2023-05-07T14:52:48;20.00;71.10
40085;DHT22;25786;51.504;7.344;2023-05-07T14:55:14;19.80;72.20
40085;DHT22;25786;51.504;7.344;2023-05-07T14:57:39;19.80;73.00
40085;DHT22;25786;51.504;7.344;2023-05-07T15:00:05;19.90;71.20
40085;DHT22;25786;51.504;7.344;2023-05-07T15:02:32;19.80;72.20
40085;DHT22;25786;51.504;7.344;2023-05-07T15:04:58;19.80;72.60
40085;DHT22;25786;51.504;7.344;2023-05-07T15:07:23;19.80;72.90
40085;DHT22;25786;51.504;7.344;2023-05-07T15:09:49;19.80;73.20
40085;DHT22;25786;51.504;7.344;2023-05-07T15:12:17;19.80;73.60
40085;DHT22;25786;51.504;7.344;2023-05-07T15:14:43;19.80;73.30
40085;DHT22;25786;51.504;7.344;2023-05-07T15:17:08;19.90;74.30
40085;DHT22;25786;51.504;7.344;2023-05-07T15:19:34;19.90;72.90
40085;DHT22;25786;51.504;7.344;2023-05-07T15:22:00;20.00;72.20
40085;DHT22;25786;51.504;7.344;2023-05-07T15:24:28;19.90;72.50
40085;DHT22;25786;51.504;7.344;2023-05-07T15:26:54;19.80;72.40
40085;DHT22;25786;51.504;7.344;2023-05-07T15:29:19;19.80;75.30
40085;DHT22;25786;51.504;7.344;2023-05-07T15:31:45;19.80;75.30
40085;DHT22;25786;51.504;7.344;2023-05-07T15:34:11;19.70;75.50
40085;DHT22;25786;51.504;7.344;2023-05-07T15:36:36;19.60;75.40
40085;DHT22;25786;51.504;7.344;2023-05-07T15:39:02;19.60;75.80
40085;DHT22;25786;51.504;7.344;2023-05-07T15:41:28;19.50;75.80
40085;DHT22;25786;51.504;7.344;2023-05-07T15:43:54;19.50;74.80
40085;DHT22;25786;51.504;7.344;2023-05-07T15:46:20;19.30;74.50
40085;DHT22;25786;51.504;7.344;2023-05-07T15:48:46;19.30;74.60
40085;DHT22;25786;51.504;7.344;2023-05-07T15:51:11;19.30;74.70
40085;DHT22;25786;51.504;7.344;2023-05-07T15:53:37;19.30;75.10
40085;DHT22;25786;51.504;7.344;2023-05-07T15:56:03;19.30;75.00
40085;DHT22;25786;51.504;7.344;2023-05-07T15:58:28;19.20;75.30
40085;DHT22;25786;51.504;7.344;2023-05-07T16:00:54;19.30;75.40